Time;durP1;ratioP1;P1;durP2;ratioP2;P2;SDS_P1;SDS_P2;PMS_P1;PMS_P2;Temp;Humidity;BMP_temperature;BMP_pressure;BME280_temperature;BME280_humidity;BME280_pressure;Samples;Min_cycle;Max_cycle;Signal;HPM_P1;HPM_P2
2021/09/08 00:00:46;;;;;;;28.58;19.17;;;;;;;16.44;68.69;100976.03;5025602;28;97300;-87
2021/09/08 00:03:12;;;;;;;29.58;20.48;;;;;;;16.42;68.66;100972.56;5034007;27;97457;-86
2021/09/08 00:05:37;;;;;;;25.05;19.17;;;;;;;16.41;68.64;100968.22;5038563;27;99370;-87
2021/09/08 00:08:03;;;;;;;21.83;18.95;;;;;;;16.35;68.94;100960.56;5051811;27;98473;-87
2021/09/08 00:10:30;;;;;;;27.73;18.65;;;;;;;16.28;69.12;100970.59;5043384;27;96821;-87
2021/09/08 00:12:56;;;;;;;27.70;20.42;;;;;;;16.33;68.97;100977.47;5026263;27;96886;-87
2021/09/08 00:15:21;;;;;;;25.20;19.08;;;;;;;16.32;69.06;100971.31;5039797;27;101648;-87
2021/09/08 00:17:47;;;;;;;24.08;18.73;;;;;;;16.39;68.68;100971.88;5039194;27;101444;-87
2021/09/08 00:20:15;;;;;;;24.52;19.40;;;;;;;16.36;68.64;100977.31;5037863;27;96889;-86
2021/09/08 00:22:41;;;;;;;25.55;19.63;;;;;;;16.25;69.10;100977.81;5018942;27;96868;-87
2021/09/08 00:25:07;;;;;;;26.73;19.80;;;;;;;16.26;69.06;100971.59;5040848;27;96847;-86
2021/09/08 00:27:33;;;;;;;26.63;20.27;;;;;;;16.16;68.98;100965.88;5025902;27;101510;-86
2021/09/08 00:29:59;;;;;;;31.38;20.25;;;;;;;16.10;69.30;100976.75;5031737;27;97385;-86
2021/09/08 00:32:25;;;;;;;28.13;21.08;;;;;;;16.11;69.54;100983.75;5023283;27;96997;-86
2021/09/08 00:34:53;;;;;;;24.02;19.02;;;;;;;16.09;69.72;100977.69;5025760;27;98460;-86
2021/09/08 00:37:18;;;;;;;25.95;18.55;;;;;;;16.10;69.50;100975.91;5008384;27;100331;-86
2021/09/08 00:39:44;;;;;;;25.63;17.90;;;;;;;16.01;69.62;100959.50;5038954;27;97141;-87
2021/09/08 00:42:15;;;;;;;28.27;20.20;;;;;;;16.19;69.12;100976.31;5035352;27;97497;-86
2021/09/08 00:44:41;;;;;;;22.98;17.90;;;;;;;16.10;69.29;100986.50;5041088;27;101530;-86
2021/09/08 00:47:11;;;;;;;21.67;18.92;;;;;;;15.93;69.81;100977.53;5058116;27;97313;-87
2021/09/08 00:49:37;;;;;;;30.52;19.15;;;;;;;15.98;69.60;100982.63;5022631;27;97814;-87
2021/09/08 00:52:04;;;;;;;29.65;20.63;;;;;;;15.98;69.52;100987.91;5023940;27;96899;-86
2021/09/08 00:54:30;;;;;;;24.17;20.25;;;;;;;15.96;69.32;100981.81;5047287;27;98060;-87
2021/09/08 00:56:58;;;;;;;26.40;20.27;;;;;;;15.99;68.95;100979.91;5041961;27;100827;-87
2021/09/08 00:59:25;;;;;;;26.65;20.35;;;;;;;15.88;69.44;100978.66;5055310;27;97360;-87
2021/09/08 01:01:51;;;;;;;24.60;19.77;;;;;;;15.93;69.27;100981.97;5039841;27;97077;-86
2021/09/08 01:04:17;;;;;;;26.42;20.00;;;;;;;15.93;69.44;100980.19;5037638;27;99012;-87
2021/09/08 01:06:43;;;;;;;24.52;19.45;;;;;;;15.80;69.72;100979.03;5039366;27;101350;-87
2021/09/08 01:09:11;;;;;;;27.85;21.45;;;;;;;15.86;69.31;100983.19;5051463;27;97288;-85
2021/09/08 01:11:37;;;;;;;27.83;21.80;;;;;;;15.77;69.75;100977.38;5019047;27;97062;-87
2021/09/08 01:14:03;;;;;;;31.83;22.25;;;;;;;15.78;70.35;100986.19;5013766;27;100724;-87
2021/09/08 01:16:29;;;;;;;25.95;20.92;;;;;;;15.75;70.11;100986.31;5048394;27;98370;-87
2021/09/08 01:18:55;;;;;;;26.05;21.02;;;;;;;15.64;70.37;100978.81;5019091;27;97248;-86
2021/09/08 01:21:20;;;;;;;28.35;21.52;;;;;;;15.69;70.44;100994.53;5039104;27;97836;-87
2021/09/08 01:23:46;;;;;;;28.13;21.50;;;;;;;15.61;70.24;100987.75;5043883;27;98188;-87
2021/09/08 01:26:12;;;;;;;27.38;21.23;;;;;;;15.68;70.34;100980.44;5041226;27;100153;-86
2021/09/08 01:28:38;;;;;;;29.17;21.67;;;;;;;15.56;70.22;100981.81;5026305;27;96628;-87
2021/09/08 01:31:05;;;;;;;28.95;20.27;;;;;;;15.60;70.18;100974.59;5025241;27;96660;-87
2021/09/08 01:33:31;;;;;;;31.15;22.15;;;;;;;15.57;70.48;100986.19;5039295;27;101864;-86
2021/09/08 01:35:57;;;;;;;34.72;22.52;;;;;;;15.59;70.61;100976.41;5041072;27;100427;-86
2021/09/08 01:38:23;;;;;;;33.67;20.98;;;;;;;15.62;70.18;100976.25;5051811;27;96823;-87
2021/09/08 01:40:48;;;;;;;24.98;21.38;;;;;;;15.62;70.07;100972.75;5017462;27;97291;-86
2021/09/08 01:43:14;;;;;;;34.30;21.88;;;;;;;15.54;70.04;100975.72;5034272;27;101430;-86
2021/09/08 01:45:41;;;;;;;28.73;21.17;;;;;;;15.56;70.40;100973.00;5044543;27;98494;-86
2021/09/08 01:48:08;;;;;;;28.85;21.60;;;;;;;15.48;70.50;100962.78;5034876;27;96967;-87
2021/09/08 01:50:34;;;;;;;26.58;21.17;;;;;;;15.51;70.28;100967.94;5020257;27;96960;-87
2021/09/08 01:52:59;;;;;;;28.73;21.52;;;;;;;15.50;70.02;100974.13;5021923;27;101618;-87
2021/09/08 01:55:25;;;;;;;28.15;20.40;;;;;;;15.59;70.04;100975.50;5035704;27;101638;-85
2021/09/08 01:57:50;;;;;;;28.92;20.55;;;;;;;15.49;70.32;100971.56;5012381;27;97501;-86
2021/09/08 02:00:16;;;;;;;28.55;21.70;;;;;;;15.43;70.73;100963.91;5041391;27;97682;-87
2021/09/08 02:02:42;;;;;;;29.80;22.40;;;;;;;15.33;70.60;100952.84;5034753;27;101033;-87
2021/09/08 02:05:09;;;;;;;26.30;20.98;;;;;;;15.43;70.28;100975.34;4999002;28;100186;-87
2021/09/08 02:07:35;;;;;;;31.58;21.63;;;;;;;15.40;70.50;100967.53;5028279;28;97020;-87
2021/09/08 02:10:00;;;;;;;31.08;22.13;;;;;;;15.36;70.66;100961.53;5017219;28;96928;-86
2021/09/08 02:12:26;;;;;;;35.33;21.80;;;;;;;15.31;71.00;100973.25;5033606;28;97807;-87
2021/09/08 02:14:52;;;;;;;28.05;21.75;;;;;;;15.31;70.69;100976.72;5014674;28;100545;-86
2021/09/08 02:17:17;;;;;;;27.45;20.23;;;;;;;15.28;70.63;100966.28;5007259;28;97116;-87
2021/09/08 02:19:43;;;;;;;31.27;22.33;;;;;;;15.24;70.86;100961.19;5000144;28;96943;-86
2021/09/08 02:22:08;;;;;;;28.70;21.45;;;;;;;15.25;71.22;100958.50;5011982;28;101569;-87
2021/09/08 02:24:33;;;;;;;29.00;22.05;;;;;;;15.30;70.59;100966.22;5034303;28;101708;-87
2021/09/08 02:26:59;;;;;;;27.48;21.45;;;;;;;15.23;71.12;100954.19;5004950;28;97233;-86
2021/09/08 02:29:24;;;;;;;32.13;22.67;;;;;;;15.18;71.62;100964.94;5016979;28;96961;-87
2021/09/08 02:31:50;;;;;;;28.55;22.83;;;;;;;15.19;71.76;100963.19;5001141;28;101649;-87
2021/09/08 02:34:16;;;;;;;25.88;21.48;;;;;;;15.14;71.69;100966.03;5015952;28;101531;-86
2021/09/08 02:36:41;;;;;;;26.23;21.20;;;;;;;15.17;71.58;100961.44;4998720;28;97040;-86
2021/09/08 02:39:07;;;;;;;27.35;21.58;;;;;;;15.26;70.77;100970.78;4998112;28;97243;-87
2021/09/08 02:41:33;;;;;;;28.90;21.73;;;;;;;15.17;71.02;100956.16;5031257;28;101261;-87
2021/09/08 02:43:59;;;;;;;24.58;20.60;;;;;;;15.20;70.94;100960.47;4990029;28;100054;-86
2021/09/08 02:46:25;;;;;;;29.85;23.00;;;;;;;15.18;71.72;100959.66;4997082;28;98486;-87
2021/09/08 02:48:50;;;;;;;29.42;21.48;;;;;;;15.15;71.63;100967.72;5010647;28;96996;-86
2021/09/08 02:51:16;;;;;;;33.35;23.20;;;;;;;15.08;71.79;100966.28;5015993;28;101083;-87
2021/09/08 02:53:41;;;;;;;26.65;21.98;;;;;;;15.09;71.49;100958.28;4992289;28;100911;-87
2021/09/08 02:56:07;;;;;;;28.42;22.55;;;;;;;15.12;72.04;100974.00;5011303;28;97148;-88
2021/09/08 02:58:33;;;;;;;28.77;22.25;;;;;;;15.08;71.92;100971.56;5030967;28;96965;-87
2021/09/08 03:00:58;;;;;;;29.25;22.73;;;;;;;15.14;71.51;100974.81;5015720;28;98180;-86
2021/09/08 03:03:24;;;;;;;27.27;21.73;;;;;;;15.05;71.59;100975.19;5020142;27;97999;-87
2021/09/08 03:05:50;;;;;;;27.17;20.90;;;;;;;15.07;71.25;100970.72;5043579;27;97053;-87
2021/09/08 03:08:16;;;;;;;28.58;21.83;;;;;;;15.02;71.52;100971.84;5029137;27;97294;-86
2021/09/08 03:10:46;;;;;;;32.97;23.02;;;;;;;14.98;71.99;100970.22;5042757;27;98380;-87
2021/09/08 03:13:16;;;;;;;28.30;21.92;;;;;;;14.88;72.07;100957.41;5019449;27;101092;-87
2021/09/08 03:15:41;;;;;;;31.13;21.70;;;;;;;14.95;72.29;100979.16;5040226;27;96778;-87
2021/09/08 03:18:07;;;;;;;27.65;21.85;;;;;;;14.92;72.12;100960.75;5036414;27;97180;-87
2021/09/08 03:20:33;;;;;;;26.17;21.00;;;;;;;14.90;71.79;100965.28;5040352;27;98045;-86
2021/09/08 03:22:59;;;;;;;29.10;22.02;;;;;;;14.82;72.06;100954.16;5030032;27;98319;-86
2021/09/08 03:25:25;;;;;;;29.30;20.92;;;;;;;14.91;71.93;100962.56;5032815;27;97021;-86
2021/09/08 03:27:50;;;;;;;31.27;21.88;;;;;;;14.91;71.99;100965.19;5038018;27;96914;-86
2021/09/08 03:30:16;;;;;;;27.75;21.15;;;;;;;14.87;71.87;100958.34;5033470;27;98341;-87
2021/09/08 03:32:41;;;;;;;28.55;21.17;;;;;;;14.87;71.82;100960.13;5034601;27;101187;-86
2021/09/08 03:35:07;;;;;;;25.50;20.13;;;;;;;14.88;71.85;100964.47;5019934;27;97050;-86
2021/09/08 03:37:33;;;;;;;30.80;21.80;;;;;;;14.87;71.96;100971.56;5035885;27;97078;-87
2021/09/08 03:39:58;;;;;;;29.80;21.13;;;;;;;14.94;71.78;100967.72;5022694;27;100987;-86
2021/09/08 03:42:24;;;;;;;26.10;20.33;;;;;;;14.79;72.10;100967.50;5036478;27;101361;-86
2021/09/08 03:44:50;;;;;;;28.27;21.80;;;;;;;14.76;72.33;100970.28;5040430;27;97130;-85
2021/09/08 03:47:16;;;;;;;28.88;22.65;;;;;;;14.71;72.65;100959.88;5043930;27;96998;-86
2021/09/08 03:49:45;;;;;;;27.40;20.50;;;;;;;14.69;72.36;100967.88;5039988;27;101359;-86
2021/09/08 03:52:21;;;;;;;26.67;20.92;;;;;;;14.69;72.10;100967.88;5039463;27;98610;-87
2021/09/08 03:54:46;;;;;;;27.55;19.10;;;;;;;14.73;72.20;100965.13;5063482;27;97372;-86
2021/09/08 03:57:12;;;;;;;28.80;21.35;;;;;;;14.73;71.64;100965.97;5015546;27;97182;-87
2021/09/08 03:59:39;;;;;;;27.42;21.38;;;;;;;14.62;72.07;100961.13;5010103;27;101400;-86
2021/09/08 04:02:05;;;;;;;33.03;21.05;;;;;;;14.62;72.10;100958.47;5031195;27;101523;-87
2021/09/08 04:04:30;;;;;;;25.50;21.27;;;;;;;14.61;72.18;100969.97;5024347;27;97022;-87
2021/09/08 04:06:57;;;;;;;26.73;20.88;;;;;;;14.53;71.94;100943.00;5038787;27;96935;-86
2021/09/08 04:09:22;;;;;;;29.33;20.38;;;;;;;14.55;72.36;100953.53;5038594;27;101150;-87
2021/09/08 04:11:48;;;;;;;24.17;20.58;;;;;;;14.50;72.66;100958.94;5023383;27;101482;-87
2021/09/08 04:14:13;;;;;;;27.23;21.25;;;;;;;14.47;72.25;100962.56;5056810;27;97069;-86
2021/09/08 04:16:39;;;;;;;28.25;20.95;;;;;;;14.52;72.57;100959.78;5022171;27;97079;-86
2021/09/08 04:19:04;;;;;;;29.02;21.27;;;;;;;14.39;73.00;100946.16;5021755;27;99185;-86
2021/09/08 04:21:30;;;;;;;27.70;21.23;;;;;;;14.39;72.99;100963.78;5018421;27;100307;-86
2021/09/08 04:23:56;;;;;;;31.10;22.10;;;;;;;14.30;72.54;100951.81;5056179;27;96880;-87
2021/09/08 04:26:22;;;;;;;32.30;23.13;;;;;;;14.38;73.20;100951.53;5054883;27;96895;-86
2021/09/08 04:28:48;;;;;;;27.15;21.70;;;;;;;14.40;72.45;100952.31;5014757;27;101896;-87
2021/09/08 04:31:14;;;;;;;35.65;22.75;;;;;;;14.52;72.43;100961.56;5051746;27;98005;-86
2021/09/08 04:33:39;;;;;;;30.05;22.05;;;;;;;14.50;72.55;100958.94;5039877;27;97130;-86
2021/09/08 04:36:05;;;;;;;30.17;22.40;;;;;;;14.53;72.56;100961.50;5027127;27;96969;-86
2021/09/08 04:38:30;;;;;;;31.15;22.67;;;;;;;14.61;72.66;100958.56;5018134;27;100365;-86
2021/09/08 04:40:56;;;;;;;31.33;23.30;;;;;;;14.61;72.62;100945.34;5038102;27;101359;-85
2021/09/08 04:43:22;;;;;;;30.33;22.17;;;;;;;14.60;72.47;100957.69;5040162;27;97223;-86
2021/09/08 04:45:47;;;;;;;29.15;22.23;;;;;;;14.52;72.17;100951.00;5039526;27;97047;-86
2021/09/08 04:48:13;;;;;;;30.27;21.98;;;;;;;14.56;72.61;100953.44;5040848;27;98466;-86
2021/09/08 04:50:39;;;;;;;35.05;22.38;;;;;;;14.57;72.83;100959.59;5039399;27;101151;-84
2021/09/08 04:53:05;;;;;;;34.45;23.05;;;;;;;14.58;72.84;100953.41;5021549;27;97288;-90
2021/09/08 04:55:31;;;;;;;30.63;23.20;;;;;;;14.58;72.82;100951.59;5054745;27;96997;-89
2021/09/08 04:57:56;;;;;;;35.15;23.20;;;;;;;14.60;72.61;100952.41;5041671;27;98631;-90
2021/09/08 05:00:22;;;;;;;32.08;22.30;;;;;;;14.62;72.53;100960.25;5041932;27;97890;-91
2021/09/08 05:02:47;;;;;;;26.65;21.60;;;;;;;14.73;72.37;100960.69;5043925;27;96838;-89
2021/09/08 05:05:13;;;;;;;28.15;22.00;;;;;;;14.79;72.26;100962.22;5034494;27;97432;-91
2021/09/08 05:07:39;;;;;;;37.92;22.55;;;;;;;14.83;71.86;100967.28;5040747;27;98556;-90
2021/09/08 05:10:05;;;;;;;33.85;23.73;;;;;;;15.05;71.58;100963.78;5036859;27;101819;-91
2021/09/08 05:12:31;;;;;;;32.60;23.38;;;;;;;15.21;71.13;100954.25;5019815;27;96864;-91
2021/09/08 05:14:57;;;;;;;32.13;23.33;;;;;;;15.52;70.38;100966.13;5044445;27;98338;-90
2021/09/08 05:17:23;;;;;;;34.42;23.00;;;;;;;15.52;70.10;100966.13;5024238;27;100077;-90
2021/09/08 05:19:48;;;;;;;33.33;23.67;;;;;;;15.81;69.41;100967.50;5024528;27;100193;-90
2021/09/08 05:22:13;;;;;;;34.08;24.15;;;;;;;15.93;68.81;100971.38;5018960;27;98524;-89
2021/09/08 05:24:39;;;;;;;37.75;25.15;;;;;;;15.96;68.95;100974.75;5036573;27;98217;-88
2021/09/08 05:27:04;;;;;;;37.00;25.33;;;;;;;16.03;68.76;100973.53;5016811;27;101519;-90
2021/09/08 05:29:30;;;;;;;33.90;25.85;;;;;;;15.88;69.44;100974.22;5018509;27;100819;-89
2021/09/08 05:31:55;;;;;;;30.27;25.48;;;;;;;16.02;69.15;100979.75;5040697;27;96831;-85
2021/09/08 05:34:21;;;;;;;36.08;26.30;;;;;;;16.11;69.10;100969.66;5055489;27;97370;-86
2021/09/08 05:36:47;;;;;;;32.60;23.98;;;;;;;16.09;68.67;100961.81;5039171;27;100410;-89
2021/09/08 05:39:13;;;;;;;32.92;24.35;;;;;;;16.18;68.60;100964.03;5032632;27;101026;-88
2021/09/08 05:41:39;;;;;;;37.28;26.58;;;;;;;16.53;67.62;100972.06;5041373;27;97208;-87
2021/09/08 05:44:05;;;;;;;36.08;26.17;;;;;;;16.45;67.76;100959.19;5034544;27;96903;-86
2021/09/08 05:46:30;;;;;;;37.55;25.48;;;;;;;16.66;67.38;100969.66;5032798;27;98153;-87
2021/09/08 05:48:56;;;;;;;40.42;24.33;;;;;;;16.77;67.41;100975.34;5034524;27;100146;-86
2021/09/08 05:51:21;;;;;;;35.28;25.13;;;;;;;16.83;66.92;100972.38;5021901;27;96761;-87
2021/09/08 05:53:47;;;;;;;29.40;24.80;;;;;;;16.93;66.14;100948.94;5050725;27;97305;-87
2021/09/08 05:56:12;;;;;;;33.08;24.25;;;;;;;17.40;65.59;100967.69;5049013;27;101345;-88
2021/09/08 05:58:38;;;;;;;31.52;23.75;;;;;;;17.35;65.99;100964.44;5038423;27;101668;-80
2021/09/08 06:01:03;;;;;;;32.22;23.98;;;;;;;17.45;65.94;100966.59;5028481;27;96716;-80
2021/09/08 06:03:29;;;;;;;36.65;25.35;;;;;;;17.71;65.18;100973.19;5033120;27;97517;-83
2021/09/08 06:05:54;;;;;;;33.08;24.48;;;;;;;17.58;65.50;100960.56;5030354;27;101135;-84
2021/09/08 06:08:20;;;;;;;32.72;24.15;;;;;;;17.86;65.11;100964.44;5031607;27;101085;-85
2021/09/08 06:10:45;;;;;;;33.13;25.20;;;;;;;18.26;63.50;100965.72;5039916;27;96878;-84
2021/09/08 06:13:11;;;;;;;29.52;23.98;;;;;;;18.72;62.65;100963.13;5037275;27;96859;-83
2021/09/08 06:15:36;;;;;;;29.20;23.95;;;;;;;19.29;61.32;100965.13;5005788;27;101855;-85
2021/09/08 06:18:04;;;;;;;30.58;23.77;;;;;;;19.79;59.50;100963.00;5031796;27;100535;-82
2021/09/08 06:20:29;;;;;;;32.42;22.08;;;;;;;20.35;58.74;100951.41;5036858;27;96751;-81
2021/09/08 06:22:55;;;;;;;28.83;21.45;;;;;;;21.19;56.57;100957.44;5034756;27;97247;-79
2021/09/08 06:25:21;;;;;;;32.97;22.45;;;;;;;22.18;53.63;100946.94;5051298;27;101682;-82
2021/09/08 06:27:46;;;;;;;31.13;22.58;;;;;;;23.47;50.93;100939.88;5017985;27;101509;-81
2021/09/08 06:30:12;;;;;;;28.20;21.83;;;;;;;24.08;48.96;100952.94;5048974;27;97258;-81
2021/09/08 06:32:38;;;;;;;26.70;22.65;;;;;;;24.67;47.59;100954.41;5059607;27;97598;-86
2021/09/08 06:35:04;;;;;;;24.38;20.40;;;;;;;25.70;45.43;100938.44;5018367;27;101786;-84
2021/09/08 06:37:29;;;;;;;22.38;20.00;;;;;;;26.66;43.59;100949.63;5044755;27;97219;-85
2021/09/08 06:39:55;;;;;;;25.33;19.75;;;;;;;27.07;42.81;100938.50;5042407;27;96782;-85
2021/09/08 06:42:20;;;;;;;26.98;20.08;;;;;;;27.76;41.43;100944.59;5020475;27;97246;-81
2021/09/08 06:44:49;;;;;;;28.92;20.20;;;;;;;28.55;39.79;100932.38;5047967;27;102069;-82
2021/09/08 06:47:15;;;;;;;27.35;20.27;;;;;;;29.21;38.70;100937.34;5019532;27;101616;-83
2021/09/08 06:49:41;;;;;;;27.83;19.17;;;;;;;29.56;38.39;100936.38;5055238;27;96715;-83
2021/09/08 06:52:07;;;;;;;24.05;19.40;;;;;;;30.25;37.23;100936.34;5005478;27;97087;-84
2021/09/08 06:54:32;;;;;;;22.60;19.17;;;;;;;30.71;36.19;100935.91;5017104;27;101666;-82
2021/09/08 06:56:58;;;;;;;26.75;20.58;;;;;;;30.51;35.98;100928.09;5021867;27;101548;-86
2021/09/08 06:59:23;;;;;;;24.65;19.52;;;;;;;30.97;35.37;100922.22;5050312;27;96792;-87
2021/09/08 07:01:49;;;;;;;21.60;19.40;;;;;;;31.00;34.81;100928.16;5032865;27;97308;-81
2021/09/08 07:04:14;;;;;;;21.65;18.42;;;;;;;31.77;34.61;100930.38;5039393;27;101299;-85
2021/09/08 07:06:40;;;;;;;21.45;19.23;;;;;;;32.21;33.33;100927.97;5052982;27;98371;-81
2021/09/08 07:09:05;;;;;;;23.00;19.30;;;;;;;31.94;33.81;100931.16;5029100;27;96631;-81
2021/09/08 07:11:31;;;;;;;19.25;17.10;;;;;;;33.09;32.53;100921.22;5015851;27;96962;-83
2021/09/08 07:13:56;;;;;;;21.20;18.00;;;;;;;34.12;30.33;100919.50;5027314;27;101932;-83
2021/09/08 07:16:22;;;;;;;25.60;18.92;;;;;;;33.51;31.12;100918.88;5033485;27;97590;-83
2021/09/08 07:18:47;;;;;;;22.10;17.65;;;;;;;33.68;31.11;100914.13;5018402;27;96779;-84
2021/09/08 07:21:13;;;;;;;20.33;17.27;;;;;;;34.24;30.83;100920.72;5022601;27;96958;-84
2021/09/08 07:23:38;;;;;;;18.60;15.32;;;;;;;34.70;30.01;100914.06;5018237;27;101168;-87
2021/09/08 07:26:04;;;;;;;21.65;16.88;;;;;;;34.81;30.44;100916.25;5037278;27;101397;-87
2021/09/08 07:28:29;;;;;;;19.35;15.90;;;;;;;35.67;29.58;100917.94;5014480;27;97330;-82
2021/09/08 07:30:55;;;;;;;16.73;15.13;;;;;;;36.33;28.25;100918.16;5040809;27;96885;-82
2021/09/08 07:33:21;;;;;;;15.60;14.02;;;;;;;36.63;27.26;100923.31;5039846;27;101035;-82
2021/09/08 07:35:48;;;;;;;22.27;16.25;;;;;;;37.27;26.32;100917.19;5028907;27;101398;-84
2021/09/08 07:38:14;;;;;;;17.52;15.68;;;;;;;37.34;26.31;100923.47;5031883;27;97108;-82
2021/09/08 07:40:40;;;;;;;17.77;15.65;;;;;;;37.15;27.33;100919.75;5024722;27;97273;-83
2021/09/08 07:43:06;;;;;;;17.48;14.55;;;;;;;37.47;26.68;100919.00;5022124;27;101433;-83
2021/09/08 07:45:32;;;;;;;19.92;15.82;;;;;;;37.33;26.65;100910.03;5019900;27;101539;-84
2021/09/08 07:47:57;;;;;;;17.15;15.55;;;;;;;37.47;25.97;100906.22;5031773;27;98044;-85
2021/09/08 07:50:23;;;;;;;16.85;14.90;;;;;;;37.28;26.03;100916.13;5030110;27;97048;-84
2021/09/08 07:52:48;;;;;;;17.08;15.32;;;;;;;37.17;26.51;100916.78;5016277;27;101027;-84
2021/09/08 07:55:14;;;;;;;17.38;15.63;;;;;;;36.59;27.13;100925.59;5032627;27;101120;-83
2021/09/08 07:57:39;;;;;;;17.70;15.90;;;;;;;36.74;27.19;100919.09;5037107;27;97221;-85
2021/09/08 08:00:06;;;;;;;15.90;14.45;;;;;;;36.85;27.50;100919.28;5052311;27;97060;-85
2021/09/08 08:02:49;;;;;;;17.40;15.63;;;;;;;36.83;27.07;100915.09;5037187;27;97932;-85
2021/09/08 08:05:15;;;;;;;16.27;14.73;;;;;;;37.13;26.80;100918.25;5023751;27;97933;-86
2021/09/08 08:07:42;;;;;;;17.88;14.98;;;;;;;36.56;27.62;100911.50;5021288;27;97113;-87
2021/09/08 08:10:08;;;;;;;19.40;14.75;;;;;;;36.52;27.31;100912.97;5034400;27;97241;-86
2021/09/08 08:12:34;;;;;;;17.27;15.43;;;;;;;36.86;27.12;100917.44;5036401;27;99034;-85
2021/09/08 08:15:00;;;;;;;18.13;15.18;;;;;;;36.38;27.75;100910.19;5045194;27;98319;-85
2021/09/08 08:17:26;;;;;;;17.50;15.15;;;;;;;36.73;27.76;100923.72;5039056;27;96753;-86
2021/09/08 08:19:51;;;;;;;15.85;14.07;;;;;;;37.21;26.88;100917.19;5054997;27;96937;-86
2021/09/08 08:22:17;;;;;;;16.17;14.88;;;;;;;37.44;26.40;100917.56;5047073;27;98242;-84
2021/09/08 08:24:43;;;;;;;14.80;13.40;;;;;;;37.53;26.13;100927.25;5048433;27;97895;-85
2021/09/08 08:27:09;;;;;;;15.10;13.70;;;;;;;37.67;26.35;100922.56;5023769;27;96796;-82
2021/09/08 08:29:34;;;;;;;14.20;12.85;;;;;;;36.89;26.25;100920.56;5035204;27;97372;-79
2021/09/08 08:32:00;;;;;;;15.20;13.65;;;;;;;37.31;26.05;100909.38;5037388;27;98792;-78
2021/09/08 08:34:26;;;;;;;14.57;13.23;;;;;;;38.01;25.47;100915.91;5019637;27;101470;-78
2021/09/08 08:36:51;;;;;;;14.43;12.88;;;;;;;38.24;24.76;100912.63;5032601;27;98385;-80
2021/09/08 08:39:18;;;;;;;15.60;14.00;;;;;;;37.70;25.21;100907.59;5049772;27;98061;-79
2021/09/08 08:41:43;;;;;;;14.07;12.77;;;;;;;37.73;25.70;100913.50;5052366;27;97756;-78
2021/09/08 08:44:09;;;;;;;15.07;12.98;;;;;;;38.25;25.36;100907.97;5046991;27;98206;-79
2021/09/08 08:46:35;;;;;;;14.43;12.80;;;;;;;37.81;25.02;100915.13;5016989;27;98155;-78
2021/09/08 08:49:00;;;;;;;14.30;12.98;;;;;;;37.26;25.17;100909.19;5035901;27;96957;-79
2021/09/08 08:51:26;;;;;;;17.73;16.27;;;;;;;36.11;26.82;100917.50;5037556;27;101349;-87
2021/09/08 08:53:52;;;;;;;15.40;14.02;;;;;;;35.73;26.87;100900.75;5055674;27;98153;-81
2021/09/08 08:56:18;;;;;;;15.82;14.52;;;;;;;34.98;27.13;100905.06;5013233;27;98087;-81
2021/09/08 08:58:43;;;;;;;14.63;13.30;;;;;;;34.86;27.83;100907.50;5047235;27;96971;-82
2021/09/08 09:01:15;;;;;;;14.63;13.43;;;;;;;35.77;26.13;100907.47;5041730;27;97550;-83
2021/09/08 09:03:41;;;;;;;16.23;14.80;;;;;;;35.95;26.67;100909.63;5025686;27;100817;-83
2021/09/08 09:06:08;;;;;;;16.10;14.52;;;;;;;35.05;27.98;100905.97;5025856;27;97021;-83
2021/09/08 09:08:34;;;;;;;16.88;15.25;;;;;;;36.23;26.84;100912.28;5034511;27;96848;-83
2021/09/08 09:11:00;;;;;;;16.85;15.25;;;;;;;35.87;26.89;100907.06;5027279;27;101175;-83
2021/09/08 09:13:33;;;;;;;16.83;14.50;;;;;;;35.92;26.37;100910.03;5039683;27;97235;-82
2021/09/08 09:16:04;;;;;;;14.23;13.02;;;;;;;36.10;26.30;100904.91;5029063;27;97250;-82
2021/09/08 09:18:39;;;;;;;13.68;12.50;;;;;;;36.30;26.84;100915.00;5017824;28;97968;-82
2021/09/08 09:21:12;;;;;;;15.18;13.88;;;;;;;37.03;25.16;100899.56;5031514;27;97561;-82
2021/09/08 09:23:52;;;;;;;13.68;12.45;;;;;;;36.87;25.95;100902.69;5016608;27;100823;-82
2021/09/08 09:26:30;;;;;;;15.25;13.88;;;;;;;37.30;25.25;100902.25;5035317;27;96874;-81
2021/09/08 09:29:24;;;;;;;14.98;13.70;;;;;;;37.71;24.54;100896.44;5042043;27;96657;-82
2021/09/08 09:31:55;;;;;;;14.70;13.52;;;;;;;37.10;25.62;100891.34;5036042;27;101086;-82
2021/09/08 09:34:21;;;;;;;14.40;13.27;;;;;;;37.65;24.36;100891.00;5017719;27;100929;-82
2021/09/08 09:36:51;;;;;;;14.38;12.45;;;;;;;37.04;24.79;100889.44;5054690;27;96859;-81
2021/09/08 09:39:17;;;;;;;13.35;12.15;;;;;;;37.07;25.64;100884.38;5024809;27;96723;-81
2021/09/08 09:41:43;;;;;;;13.07;11.98;;;;;;;36.25;25.53;100886.44;5041267;27;97416;-81
2021/09/08 09:44:10;;;;;;;13.43;12.13;;;;;;;37.12;24.93;100873.66;5033774;27;99349;-81
2021/09/08 09:46:39;;;;;;;12.85;11.85;;;;;;;36.24;25.56;100887.47;5014273;27;96712;-82
2021/09/08 09:49:05;;;;;;;17.17;13.23;;;;;;;36.42;25.96;100872.34;5014508;27;96856;-80
2021/09/08 09:51:31;;;;;;;14.35;13.25;;;;;;;37.04;25.43;100862.94;5033928;27;101387;-80
2021/09/08 09:53:57;;;;;;;13.85;12.57;;;;;;;36.60;25.37;100867.16;5025585;27;101170;-80
2021/09/08 09:56:22;;;;;;;13.85;12.57;;;;;;;36.36;25.86;100860.34;5045671;27;97475;-80
2021/09/08 09:58:48;;;;;;;13.18;11.82;;;;;;;36.66;25.44;100860.00;5046671;27;96924;-78
2021/09/08 10:01:14;;;;;;;12.80;11.63;;;;;;;36.26;26.17;100859.94;5032546;28;101300;-78
2021/09/08 10:03:40;;;;;;;11.65;10.63;;;;;;;35.89;26.42;100864.88;5034110;27;97900;-79
2021/09/08 10:06:06;;;;;;;12.35;11.32;;;;;;;35.90;26.21;100855.66;5035072;27;97215;-79
2021/09/08 10:08:33;;;;;;;13.32;12.23;;;;;;;34.53;27.41;100860.81;5046083;27;96923;-77
2021/09/08 10:11:03;;;;;;;12.57;11.55;;;;;;;34.05;28.45;100842.34;5032002;27;101541;-76
2021/09/08 10:13:32;;;;;;;12.68;11.52;;;;;;;33.72;28.99;100840.09;5032355;27;97578;-76
2021/09/08 10:15:58;;;;;;;13.52;12.32;;;;;;;33.04;30.11;100836.63;5046114;27;96867;-76
2021/09/08 10:18:25;;;;;;;12.65;11.38;;;;;;;32.76;29.74;100849.16;5034699;27;97253;-75
2021/09/08 10:21:01;;;;;;;11.55;10.38;;;;;;;32.43;30.22;100835.78;5014046;27;101694;-76
2021/09/08 10:23:27;;;;;;;12.90;11.77;;;;;;;31.87;31.15;100846.03;5045659;27;97976;-76
2021/09/08 10:32:02;;;;;;;12.30;11.02;;;;;;;31.63;31.47;100828.00;5159027;23;104128;-84
2021/09/08 10:34:30;;;;;;;12.18;11.00;;;;;;;31.07;31.88;100826.16;4919261;28;97924;-84
2021/09/08 10:36:56;;;;;;;11.57;10.57;;;;;;;30.85;31.70;100829.59;4916824;28;96972;-84
2021/09/08 10:39:22;;;;;;;11.10;10.02;;;;;;;30.27;32.57;100827.91;4915275;28;97058;-84
2021/09/08 10:41:53;;;;;;;11.45;10.43;;;;;;;30.37;32.33;100832.16;4920790;28;101123;-83
2021/09/08 10:44:42;;;;;;;11.63;10.52;;;;;;;30.35;32.64;100828.75;4935697;28;97676;-85
2021/09/08 10:50:08;;;;;;;12.02;10.88;;;;;;;29.70;33.74;100821.34;5011598;22;105496;-80
2021/09/08 10:52:34;;;;;;;12.35;11.10;;;;;;;29.42;33.50;100819.88;4918958;28;99093;-81
2021/09/08 10:58:58;;;;;;;12.48;11.27;;;;;;;28.79;34.85;100816.44;5057171;22;104673;-83
2021/09/08 11:01:24;;;;;;;11.18;10.18;;;;;;;28.54;33.61;100815.44;4917302;28;97745;-83
2021/09/08 11:03:51;;;;;;;10.38;9.48;;;;;;;28.39;33.90;100807.03;4898608;28;100334;-83
2021/09/08 11:06:17;;;;;;;12.43;11.25;;;;;;;28.32;34.97;100799.69;4914719;28;101443;-82
2021/09/08 11:08:44;;;;;;;10.88;9.77;;;;;;;27.98;34.71;100797.69;4901271;28;96943;-82
2021/09/08 11:11:17;;;;;;;10.55;9.60;;;;;;;27.70;33.68;100800.41;4917488;28;97057;-83
2021/09/08 11:13:44;;;;;;;10.70;9.65;;;;;;;27.53;33.99;100785.06;4916254;28;97706;-82
2021/09/08 11:16:22;;;;;;;11.15;9.98;;;;;;;27.43;34.50;100795.03;4900223;28;101774;-82